Time;durP1;ratioP1;P1;durP2;ratioP2;P2;SDS_P1;SDS_P2;PMS_P1;PMS_P2;Temp;Humidity;BMP_temperature;BMP_pressure;BME280_temperature;BME280_humidity;BME280_pressure;Samples;Min_cycle;Max_cycle;Signal;HPM_P1;HPM_P2
2022/10/07 00:00:22;;;;;;;13.95;3.92;;;14.80;94.50;;;;;;5034777;28;20029;-71
2022/10/07 00:02:48;;;;;;;15.80;3.95;;;14.80;94.50;;;;;;5034707;28;20498;-61
2022/10/07 00:05:13;;;;;;;15.38;4.15;;;14.70;94.60;;;;;;5034756;28;20026;-62
2022/10/07 00:07:39;;;;;;;12.10;3.72;;;14.70;94.70;;;;;;5034198;28;20479;-65
2022/10/07 00:10:05;;;;;;;13.25;3.95;;;14.70;94.70;;;;;;5033929;28;20022;-61
2022/10/07 00:12:31;;;;;;;16.40;4.40;;;14.70;94.80;;;;;;5034542;28;20056;-65
2022/10/07 00:14:56;;;;;;;13.63;4.25;;;14.70;94.90;;;;;;5034348;28;20022;-62
2022/10/07 00:17:22;;;;;;;13.82;4.57;;;14.60;94.90;;;;;;5034043;28;20034;-63
2022/10/07 00:19:47;;;;;;;12.27;4.00;;;14.60;95.00;;;;;;5033121;28;20071;-64
2022/10/07 00:22:13;;;;;;;15.13;4.63;;;14.60;95.00;;;;;;5033928;28;20068;-61
2022/10/07 00:24:39;;;;;;;17.45;4.63;;;14.60;95.00;;;;;;5033977;28;20501;-64
2022/10/07 00:27:04;;;;;;;13.75;5.03;;;14.60;95.00;;;;;;5033863;28;20036;-61
2022/10/07 00:29:30;;;;;;;13.93;4.53;;;14.60;95.10;;;;;;5034217;28;20101;-62
2022/10/07 00:31:55;;;;;;;17.77;4.88;;;14.60;95.10;;;;;;5033973;28;20068;-63
2022/10/07 00:34:21;;;;;;;11.63;4.53;;;14.60;95.20;;;;;;5034052;28;20034;-62
2022/10/07 00:36:49;;;;;;;12.48;4.32;;;14.50;95.20;;;;;;5033614;28;20072;-62
2022/10/07 00:39:16;;;;;;;17.98;5.00;;;14.50;95.30;;;;;;5033638;28;20032;-67
2022/10/07 00:41:45;;;;;;;11.60;3.75;;;14.50;95.30;;;;;;5034136;28;20108;-67
2022/10/07 00:44:42;;;;;;;15.32;4.90;;;14.50;95.40;;;;;;5033836;28;20028;-62
2022/10/07 00:47:33;;;;;;;15.70;4.03;;;14.50;95.40;;;;;;5033651;28;20048;-61
2022/10/07 00:50:02;;;;;;;12.88;3.90;;;14.50;95.50;;;;;;5033790;28;20363;-66
2022/10/07 00:52:31;;;;;;;13.98;4.13;;;14.40;95.50;;;;;;5033492;28;20459;-63
2022/10/07 00:55:01;;;;;;;11.70;4.18;;;14.40;95.60;;;;;;5033985;28;20514;-61
2022/10/07 00:57:28;;;;;;;16.90;4.75;;;14.40;95.50;;;;;;5033188;28;20029;-63
2022/10/07 00:59:55;;;;;;;16.38;4.45;;;14.40;95.60;;;;;;5033692;28;20032;-70
2022/10/07 01:02:24;;;;;;;14.90;5.43;;;14.40;95.60;;;;;;5033651;28;20025;-62
2022/10/07 01:04:51;;;;;;;12.75;4.18;;;14.40;95.60;;;;;;5033710;28;20025;-59
2022/10/07 01:07:19;;;;;;;10.35;4.03;;;14.30;95.70;;;;;;5032576;28;20021;-60
2022/10/07 01:09:47;;;;;;;12.77;4.00;;;14.40;95.70;;;;;;5033897;28;20386;-63
2022/10/07 01:12:22;;;;;;;11.43;4.03;;;14.30;95.70;;;;;;5033000;28;20079;-61
2022/10/07 01:15:30;;;;;;;16.70;4.70;;;14.30;95.70;;;;;;5033342;28;20032;-60
2022/10/07 01:18:07;;;;;;;14.20;4.78;;;14.30;95.70;;;;;;5033366;28;20037;-63
2022/10/07 01:20:44;;;;;;;10.20;3.95;;;14.30;95.80;;;;;;5033184;28;20049;-63
2022/10/07 01:23:24;;;;;;;15.50;4.72;;;14.30;95.80;;;;;;5032456;28;20045;-62
2022/10/07 01:26:29;;;;;;;15.35;4.47;;;14.30;95.80;;;;;;5033269;28;20068;-60
2022/10/07 01:29:03;;;;;;;16.00;4.88;;;14.20;95.80;;;;;;5033169;28;20458;-60
2022/10/07 01:31:36;;;;;;;15.88;4.78;;;14.20;95.80;;;;;;5032857;28;20072;-60
2022/10/07 01:34:05;;;;;;;17.83;4.32;;;14.20;95.90;;;;;;5032321;28;20041;-59
2022/10/07 01:36:32;;;;;;;14.60;4.60;;;14.20;95.90;;;;;;5032804;28;20036;-60
2022/10/07 01:39:02;;;;;;;12.30;4.18;;;14.20;96.00;;;;;;5033136;28;20442;-61
2022/10/07 01:41:30;;;;;;;17.20;4.03;;;14.10;96.00;;;;;;5032985;28;20033;-69
2022/10/07 01:43:58;;;;;;;12.73;4.15;;;14.20;96.00;;;;;;5032578;28;20021;-65
2022/10/07 01:46:26;;;;;;;15.05;4.13;;;14.10;96.00;;;;;;5032824;28;20024;-62
2022/10/07 01:48:52;;;;;;;15.65;4.15;;;14.10;96.00;;;;;;5032994;28;20032;-66
2022/10/07 01:51:22;;;;;;;14.32;4.32;;;14.10;96.10;;;;;;5032396;28;20029;-68
2022/10/07 01:54:13;;;;;;;13.02;4.18;;;14.10;96.10;;;;;;5032225;28;20459;-66
2022/10/07 01:57:08;;;;;;;13.82;4.25;;;14.00;96.20;;;;;;5022212;28;20030;-67
2022/10/07 01:59:46;;;;;;;11.63;3.92;;;14.10;96.20;;;;;;5032782;28;20060;-67
2022/10/07 02:02:34;;;;;;;13.55;4.10;;;14.00;96.20;;;;;;5037150;28;20084;-64
2022/10/07 02:05:36;;;;;;;17.67;4.78;;;14.00;96.30;;;;;;5035558;28;20060;-63
2022/10/07 02:08:32;;;;;;;13.90;4.68;;;14.00;96.30;;;;;;5036859;28;20021;-67
2022/10/07 02:11:29;;;;;;;12.70;4.10;;;14.00;96.40;;;;;;5036328;28;20114;-63
2022/10/07 02:14:10;;;;;;;13.25;4.53;;;14.00;96.40;;;;;;5051939;28;20033;-63
2022/10/07 02:16:42;;;;;;;20.55;5.15;;;13.90;96.40;;;;;;5036794;28;20033;-62
2022/10/07 02:19:15;;;;;;;13.23;3.70;;;13.90;96.40;;;;;;5036178;28;20356;-61
2022/10/07 02:21:44;;;;;;;15.52;5.18;;;13.90;96.50;;;;;;5036407;28;20018;-62
2022/10/07 02:24:11;;;;;;;17.70;4.30;;;13.90;96.50;;;;;;5036208;28;20029;-61
2022/10/07 02:26:39;;;;;;;15.32;4.43;;;13.90;96.50;;;;;;5036567;28;20052;-60
2022/10/07 02:29:08;;;;;;;13.77;4.18;;;13.80;96.60;;;;;;5035891;28;20021;-61
2022/10/07 02:31:35;;;;;;;16.20;4.88;;;13.90;96.60;;;;;;5036354;28;20043;-62
2022/10/07 02:34:03;;;;;;;14.23;4.40;;;13.80;96.60;;;;;;5036114;28;20096;-60
2022/10/07 02:36:35;;;;;;;17.38;4.95;;;13.80;96.60;;;;;;5036486;28;20076;-60
2022/10/07 02:39:02;;;;;;;17.77;4.55;;;13.80;96.60;;;;;;5035917;28;20025;-61
2022/10/07 02:41:54;;;;;;;17.83;4.28;;;13.80;96.60;;;;;;5036338;28;20045;-60
2022/10/07 02:44:41;;;;;;;15.15;4.13;;;13.80;96.70;;;;;;5035891;28;20375;-60
2022/10/07 02:47:31;;;;;;;17.67;4.32;;;13.80;96.70;;;;;;5036207;28;20455;-60
2022/10/07 02:50:02;;;;;;;14.85;4.68;;;13.80;96.70;;;;;;5035365;28;20068;-61
2022/10/07 02:52:30;;;;;;;15.80;4.90;;;13.80;96.70;;;;;;5035926;28;20042;-62
2022/10/07 02:55:00;;;;;;;22.10;5.80;;;13.80;96.80;;;;;;5035911;28;20041;-60
2022/10/07 02:57:29;;;;;;;12.90;4.38;;;13.80;96.80;;;;;;5035504;28;20040;-61
2022/10/07 02:59:59;;;;;;;15.75;4.35;;;13.70;96.70;;;;;;5035893;28;20017;-67
2022/10/07 03:02:41;;;;;;;16.30;4.35;;;13.80;96.70;;;;;;5035578;28;20029;-69
2022/10/07 03:05:08;;;;;;;17.35;4.72;;;13.70;96.70;;;;;;5035304;28;20112;-64
2022/10/07 03:07:34;;;;;;;16.48;4.70;;;13.70;96.70;;;;;;5026812;28;20010;-66
2022/10/07 03:10:01;;;;;;;16.23;4.60;;;13.70;96.70;;;;;;5031482;28;20029;-70
2022/10/07 03:12:27;;;;;;;13.48;4.85;;;13.70;96.80;;;;;;5014391;28;20469;-65
2022/10/07 03:14:53;;;;;;;13.10;4.95;;;13.70;96.80;;;;;;5011873;28;20360;-63
2022/10/07 03:17:18;;;;;;;15.98;4.72;;;13.70;96.80;;;;;;5015092;28;20087;-69
2022/10/07 03:19:44;;;;;;;17.02;4.70;;;13.70;96.80;;;;;;5032359;28;20030;-69
2022/10/07 03:22:10;;;;;;;11.25;4.30;;;13.70;96.80;;;;;;5035413;28;20043;-66
2022/10/07 03:24:35;;;;;;;15.07;4.30;;;13.60;96.80;;;;;;5035160;28;20471;-67
2022/10/07 03:27:01;;;;;;;12.95;3.90;;;13.60;96.80;;;;;;5035530;28;20087;-60
2022/10/07 03:29:26;;;;;;;12.07;3.72;;;13.60;96.90;;;;;;5034986;28;20087;-70
2022/10/07 03:31:54;;;;;;;15.32;4.38;;;13.60;96.90;;;;;;5035391;28;20042;-67
2022/10/07 03:34:19;;;;;;;13.50;4.22;;;13.60;96.90;;;;;;5034755;28;20029;-68
2022/10/07 03:36:45;;;;;;;12.43;3.85;;;13.60;96.90;;;;;;5035351;28;20025;-60
2022/10/07 03:39:11;;;;;;;16.35;4.43;;;13.60;96.90;;;;;;5034768;28;20375;-60
2022/10/07 03:41:36;;;;;;;17.15;4.78;;;13.50;96.90;;;;;;5034907;28;20391;-61
2022/10/07 03:44:02;;;;;;;17.58;4.43;;;13.50;96.90;;;;;;5035411;28;20024;-60
2022/10/07 03:46:28;;;;;;;16.25;4.75;;;13.50;96.90;;;;;;5035092;28;20090;-61
2022/10/07 03:48:53;;;;;;;15.48;4.10;;;13.50;96.90;;;;;;5034512;28;20033;-60
2022/10/07 03:51:19;;;;;;;18.83;4.57;;;13.50;96.90;;;;;;5034703;28;20601;-60
2022/10/07 03:53:44;;;;;;;14.43;4.10;;;13.50;97.00;;;;;;5034805;28;20037;-61
2022/10/07 03:56:10;;;;;;;16.05;4.20;;;13.50;97.00;;;;;;5034668;28;20029;-60
2022/10/07 03:58:35;;;;;;;15.32;4.07;;;13.50;97.00;;;;;;5034517;28;20049;-60
2022/10/07 04:01:09;;;;;;;13.02;3.75;;;13.40;97.00;;;;;;5034643;28;20028;-61
2022/10/07 04:03:35;;;;;;;13.65;4.63;;;13.50;97.00;;;;;;5034504;28;20782;-60
2022/10/07 04:06:02;;;;;;;13.90;3.75;;;13.40;97.00;;;;;;5034712;28;20025;-61
2022/10/07 04:08:29;;;;;;;12.23;4.18;;;13.50;97.00;;;;;;5034132;28;20036;-61
2022/10/07 04:10:56;;;;;;;19.13;4.55;;;13.40;97.00;;;;;;5034263;28;20038;-60
2022/10/07 04:13:22;;;;;;;18.02;4.32;;;13.40;97.00;;;;;;5033124;28;20104;-61
2022/10/07 04:15:48;;;;;;;13.85;4.25;;;13.40;97.00;;;;;;5030591;28;20392;-60
2022/10/07 04:18:14;;;;;;;14.55;4.60;;;13.40;97.10;;;;;;5025541;28;20029;-61
2022/10/07 04:20:39;;;;;;;15.55;4.57;;;13.40;97.10;;;;;;5030478;28;20458;-67
2022/10/07 04:23:05;;;;;;;19.20;4.78;;;13.40;97.10;;;;;;5041523;28;20056;-69
2022/10/07 04:25:34;;;;;;;17.50;3.95;;;13.30;97.10;;;;;;5044874;28;20033;-65
2022/10/07 04:28:03;;;;;;;14.02;3.55;;;13.30;97.10;;;;;;5044275;28;20079;-65
2022/10/07 04:30:33;;;;;;;16.38;4.03;;;13.30;97.10;;;;;;5039557;28;20057;-61
2022/10/07 04:33:02;;;;;;;15.38;4.25;;;13.30;97.20;;;;;;5040947;28;20098;-60
2022/10/07 04:35:28;;;;;;;16.10;4.30;;;13.30;97.20;;;;;;5045944;28;20075;-65
2022/10/07 04:37:54;;;;;;;13.45;4.07;;;13.30;97.20;;;;;;5035591;28;20021;-61
2022/10/07 04:40:21;;;;;;;16.35;3.95;;;13.30;97.20;;;;;;5036783;28;20497;-69
2022/10/07 04:45:36;;;;;;;13.88;4.45;;;13.20;97.20;;;;;;5052318;28;20040;-64
2022/10/07 04:48:04;;;;;;;13.02;4.30;;;13.30;97.20;;;;;;5034355;28;20452;-70
2022/10/07 04:50:31;;;;;;;14.77;4.15;;;13.20;97.30;;;;;;5033426;28;20030;-67
2022/10/07 04:52:57;;;;;;;14.93;4.40;;;13.20;97.40;;;;;;5034099;28;20049;-65
2022/10/07 04:55:22;;;;;;;13.63;3.92;;;13.20;97.30;;;;;;5033860;28;20022;-65
2022/10/07 04:57:48;;;;;;;14.38;4.05;;;13.20;97.30;;;;;;5033148;28;20479;-62
2022/10/07 05:00:14;;;;;;;16.42;3.85;;;13.20;97.30;;;;;;5031624;28;20014;-65
2022/10/07 05:02:40;;;;;;;12.35;3.92;;;13.10;97.30;;;;;;5028156;28;20022;-66
2022/10/07 05:05:06;;;;;;;23.77;3.72;;;13.10;97.30;;;;;;5033059;28;20022;-69
2022/10/07 05:07:31;;;;;;;15.40;4.10;;;13.10;97.30;;;;;;5032263;28;20447;-66
2022/10/07 05:09:57;;;;;;;16.65;4.07;;;13.10;97.30;;;;;;5032942;28;20025;-60
2022/10/07 05:12:24;;;;;;;19.30;4.82;;;13.10;97.00;;;;;;5033407;28;20045;-60
2022/10/07 05:14:50;;;;;;;14.68;3.33;;;12.90;97.20;;;;;;5032970;28;20014;-60
2022/10/07 05:17:15;;;;;;;16.35;3.80;;;12.80;97.30;;;;;;5033274;28;20098;-67
2022/10/07 05:19:41;;;;;;;10.80;4.22;;;12.70;97.60;;;;;;5033921;28;20426;-61
2022/10/07 05:22:06;;;;;;;11.43;3.08;;;12.60;97.90;;;;;;5031444;28;20036;-62
2022/10/07 05:24:32;;;;;;;13.68;4.22;;;12.60;98.00;;;;;;5032863;28;20030;-61
2022/10/07 05:26:57;;;;;;;16.73;4.18;;;12.50;98.10;;;;;;5033133;28;20040;-64
2022/10/07 05:29:23;;;;;;;16.92;4.22;;;12.60;98.50;;;;;;5033581;28;20033;-63
2022/10/07 05:31:49;;;;;;;15.57;4.35;;;12.80;97.60;;;;;;5051672;28;20531;-63
2022/10/07 05:34:15;;;;;;;14.75;4.03;;;12.80;97.60;;;;;;5050540;28;20398;-65
2022/10/07 05:36:42;;;;;;;14.38;3.67;;;12.80;97.50;;;;;;5032761;28;20021;-64
2022/10/07 05:39:10;;;;;;;15.20;3.95;;;12.70;97.60;;;;;;5032903;28;20018;-62
2022/10/07 05:41:38;;;;;;;17.02;4.20;;;12.80;97.70;;;;;;5032982;28;20463;-61
2022/10/07 05:44:03;;;;;;;15.05;4.55;;;12.70;97.70;;;;;;5032526;28;20371;-66
2022/10/07 05:46:29;;;;;;;13.93;4.32;;;12.80;97.80;;;;;;5039328;28;20474;-62
2022/10/07 05:48:54;;;;;;;17.60;3.92;;;12.80;97.70;;;;;;5052363;28;20037;-67
2022/10/07 05:51:22;;;;;;;12.07;3.50;;;12.80;97.90;;;;;;5052515;28;20079;-64
2022/10/07 05:53:47;;;;;;;15.48;3.63;;;12.90;97.70;;;;;;5036460;28;20025;-65
2022/10/07 05:56:15;;;;;;;15.15;3.70;;;12.90;97.50;;;;;;5047376;28;20125;-69
2022/10/07 05:58:41;;;;;;;14.23;3.92;;;12.90;97.30;;;;;;5032182;28;20021;-65
2022/10/07 06:01:13;;;;;;;12.57;3.30;;;12.90;97.20;;;;;;5032421;28;20548;-66
2022/10/07 06:03:38;;;;;;;12.82;3.75;;;13.00;97.70;;;;;;5042592;28;20030;-62
2022/10/07 06:06:04;;;;;;;19.05;3.88;;;13.00;97.30;;;;;;5034589;28;20045;-67
2022/10/07 06:08:30;;;;;;;11.73;3.15;;;13.00;97.20;;;;;;5030870;28;20079;-63
2022/10/07 06:13:51;;;;;;;13.15;3.60;;;13.00;98.00;;;;;;5032314;28;20095;-67
2022/10/07 06:16:17;;;;;;;12.40;3.65;;;13.00;97.70;;;;;;5032497;28;20348;-68
2022/10/07 06:18:43;;;;;;;14.88;3.67;;;13.10;97.40;;;;;;5032029;28;20072;-68
2022/10/07 06:21:08;;;;;;;12.98;4.25;;;13.20;98.00;;;;;;5030800;28;20148;-68
2022/10/07 06:23:34;;;;;;;11.85;4.63;;;13.20;97.20;;;;;;5032150;28;20095;-69
2022/10/07 06:26:05;;;;;;;16.20;4.95;;;13.20;97.40;;;;;;5032560;28;20057;-67
2022/10/07 06:28:38;;;;;;;16.75;5.38;;;13.20;97.70;;;;;;5031766;28;20364;-68
2022/10/07 06:31:10;;;;;;;12.38;3.47;;;13.30;97.70;;;;;;5032491;28;20041;-68
2022/10/07 06:33:36;;;;;;;13.27;3.53;;;13.30;97.80;;;;;;5032520;28;20068;-68
2022/10/07 06:36:06;;;;;;;15.13;4.13;;;13.30;97.50;;;;;;5032606;28;20057;-66
2022/10/07 06:38:32;;;;;;;17.52;5.00;;;13.30;97.20;;;;;;5032569;28;20387;-67
2022/10/07 06:41:03;;;;;;;9.43;2.92;;;13.30;97.00;;;;;;5032246;28;20029;-68
2022/10/07 06:43:30;;;;;;;13.85;3.70;;;13.30;97.70;;;;;;5032235;28;20026;-66
2022/10/07 06:46:02;;;;;;;14.90;4.13;;;13.40;97.60;;;;;;5033485;28;20466;-70
2022/10/07 06:48:31;;;;;;;12.13;3.30;;;13.40;97.70;;;;;;5036449;28;20025;-68
2022/10/07 06:50:58;;;;;;;15.40;3.90;;;13.50;97.80;;;;;;5036146;28;20175;-67
2022/10/07 06:53:25;;;;;;;10.93;3.05;;;13.40;97.30;;;;;;5036227;28;20018;-63
2022/10/07 06:55:53;;;;;;;12.45;3.20;;;13.50;97.50;;;;;;5050717;28;20035;-61
2022/10/07 06:58:20;;;;;;;12.02;2.95;;;13.50;97.50;;;;;;5035926;28;20025;-62
2022/10/07 07:00:49;;;;;;;11.25;2.88;;;13.60;97.90;;;;;;5035793;28;20467;-64
2022/10/07 07:03:15;;;;;;;12.27;3.22;;;13.60;97.70;;;;;;5035771;28;20434;-63
2022/10/07 07:05:42;;;;;;;10.20;2.80;;;13.70;97.70;;;;;;5035576;28;20022;-65
2022/10/07 07:08:08;;;;;;;8.00;2.63;;;13.70;97.50;;;;;;5035820;28;20033;-62
2022/10/07 07:10:44;;;;;;;11.75;3.10;;;13.70;97.70;;;;;;5035420;28;20026;-63
2022/10/07 07:13:10;;;;;;;7.43;2.22;;;13.80;97.50;;;;;;5035475;28;20032;-68
2022/10/07 07:15:38;;;;;;;15.73;3.92;;;13.90;97.60;;;;;;5035695;28;20049;-69
2022/10/07 07:18:05;;;;;;;10.45;3.85;;;13.90;97.10;;;;;;5035509;28;20029;-68
2022/10/07 07:20:35;;;;;;;13.38;3.33;;;13.90;97.00;;;;;;5050706;28;20018;-69
2022/10/07 07:23:01;;;;;;;11.45;3.03;;;13.90;97.20;;;;;;5035417;28;20064;-68
2022/10/07 07:25:27;;;;;;;11.15;3.08;;;14.00;97.30;;;;;;5033788;28;20056;-69
2022/10/07 07:27:54;;;;;;;10.55;3.45;;;13.90;97.10;;;;;;5035200;28;20025;-67
2022/10/07 07:30:22;;;;;;;7.03;2.60;;;14.00;97.00;;;;;;5035239;28;20110;-67
2022/10/07 07:32:48;;;;;;;11.27;2.78;;;14.00;97.10;;;;;;5033865;28;20041;-67
2022/10/07 07:35:14;;;;;;;8.13;2.22;;;14.10;97.00;;;;;;5035180;28;20025;-68
2022/10/07 07:37:40;;;;;;;12.02;2.88;;;14.10;97.10;;;;;;5035219;28;20026;-68
2022/10/07 07:40:06;;;;;;;11.35;3.00;;;14.20;96.90;;;;;;5034770;28;20033;-67
2022/10/07 07:42:32;;;;;;;13.90;3.65;;;14.20;97.00;;;;;;5034944;28;20140;-67
2022/10/07 07:44:58;;;;;;;10.15;3.00;;;14.30;96.70;;;;;;5035052;28;20104;-67
2022/10/07 07:47:24;;;;;;;10.40;2.97;;;14.30;96.60;;;;;;5035093;28;20021;-67
2022/10/07 07:49:50;;;;;;;10.77;2.90;;;14.40;96.60;;;;;;5035001;28;20028;-68
2022/10/07 07:52:15;;;;;;;10.30;2.78;;;14.40;96.50;;;;;;5034993;28;20033;-67
2022/10/07 07:54:41;;;;;;;11.90;3.45;;;14.40;96.60;;;;;;5034702;28;20018;-68
2022/10/07 07:57:07;;;;;;;12.13;3.30;;;14.40;96.50;;;;;;5034492;28;20426;-65
2022/10/07 07:59:33;;;;;;;7.25;2.72;;;14.40;96.40;;;;;;5032965;28;20052;-68
2022/10/07 08:01:59;;;;;;;10.60;2.72;;;14.40;96.40;;;;;;5034671;28;20053;-64
2022/10/07 08:04:25;;;;;;;14.40;3.75;;;14.50;96.40;;;;;;5034692;28;20033;-64
2022/10/07 08:06:50;;;;;;;13.13;3.08;;;14.40;96.40;;;;;;5034546;28;20468;-64
2022/10/07 08:09:16;;;;;;;10.80;2.97;;;14.40;96.50;;;;;;5034304;28;20095;-63
2022/10/07 08:11:45;;;;;;;10.90;2.75;;;14.40;96.50;;;;;;5034394;28;20042;-66
2022/10/07 08:14:15;;;;;;;15.43;3.40;;;14.50;96.60;;;;;;5034403;28;20039;-66
2022/10/07 08:16:42;;;;;;;9.18;2.50;;;14.70;96.20;;;;;;5033129;28;20021;-66
2022/10/07 08:19:09;;;;;;;5.53;1.80;;;15.40;95.10;;;;;;5034349;28;20100;-66
2022/10/07 08:21:35;;;;;;;11.93;2.55;;;15.70;94.60;;;;;;5034273;28;20537;-66
2022/10/07 08:24:04;;;;;;;9.75;2.25;;;15.70;94.30;;;;;;5033782;28;20585;-63
2022/10/07 08:26:32;;;;;;;11.45;2.70;;;15.70;94.30;;;;;;5034394;28;20508;-64
2022/10/07 08:29:00;;;;;;;7.47;2.80;;;15.80;94.30;;;;;;5033646;28;20020;-66
2022/10/07 08:31:27;;;;;;;10.85;2.80;;;15.90;94.20;;;;;;5034100;28;20037;-67
2022/10/07 08:33:54;;;;;;;10.27;2.75;;;15.80;94.10;;;;;;5033923;28;20030;-65
2022/10/07 08:36:22;;;;;;;8.35;2.83;;;15.90;94.10;;;;;;5033911;28;20030;-63
2022/10/07 08:38:48;;;;;;;14.18;2.75;;;16.00;93.90;;;;;;5033819;28;20022;-63
2022/10/07 08:41:20;;;;;;;6.85;2.15;;;15.90;94.10;;;;;;5033978;28;20479;-64
2022/10/07 08:43:48;;;;;;;12.18;2.88;;;16.00;94.00;;;;;;5033895;28;20025;-64
2022/10/07 08:46:28;;;;;;;12.02;2.63;;;16.00;94.00;;;;;;5033889;28;20079;-63
2022/10/07 08:49:04;;;;;;;8.27;2.65;;;16.10;94.10;;;;;;5033720;28;20033;-68
2022/10/07 08:51:43;;;;;;;10.05;2.65;;;16.20;93.60;;;;;;5033525;28;20044;-67
2022/10/07 08:54:13;;;;;;;8.35;2.63;;;16.30;93.50;;;;;;5033840;28;20076;-63
2022/10/07 08:56:39;;;;;;;11.30;2.90;;;16.30;93.50;;;;;;5033618;28;20482;-67
2022/10/07 08:59:20;;;;;;;8.20;2.38;;;16.30;93.40;;;;;;5033714;28;20066;-66
2022/10/07 09:01:58;;;;;;;10.80;2.38;;;16.40;93.40;;;;;;5032334;28;20040;-68
2022/10/07 09:04:43;;;;;;;6.60;2.38;;;16.40;93.30;;;;;;5033566;28;20033;-62
2022/10/07 09:07:31;;;;;;;10.90;2.50;;;16.50;93.10;;;;;;5032519;28;20036;-63
2022/10/07 09:10:08;;;;;;;10.20;2.72;;;16.60;93.10;;;;;;5033396;28;20021;-66
2022/10/07 09:12:42;;;;;;;10.82;2.47;;;16.30;93.50;;;;;;5033538;28;20118;-68
2022/10/07 09:15:17;;;;;;;6.40;2.00;;;16.20;93.80;;;;;;5033438;28;20521;-68
2022/10/07 09:17:52;;;;;;;7.10;2.13;;;16.20;93.80;;;;;;5033432;28;20022;-68
2022/10/07 09:20:19;;;;;;;9.85;2.08;;;16.20;93.80;;;;;;5033149;28;20025;-68
2022/10/07 09:22:53;;;;;;;7.53;1.90;;;16.20;93.80;;;;;;5033218;28;20467;-68
2022/10/07 09:25:40;;;;;;;11.90;2.35;;;16.20;93.80;;;;;;5033184;28;20083;-69
2022/10/07 09:28:10;;;;;;;8.77;2.17;;;16.30;93.70;;;;;;5033084;28;20041;-68
2022/10/07 09:30:36;;;;;;;7.63;2.03;;;16.30;93.70;;;;;;5033028;28;20029;-68
2022/10/07 09:33:02;;;;;;;8.52;2.25;;;16.30;93.80;;;;;;5032996;28;20025;-68
2022/10/07 09:35:30;;;;;;;32.05;4.28;;;16.30;93.80;;;;;;5032856;28;20024;-68
2022/10/07 09:38:02;;;;;;;10.55;2.10;;;16.10;94.00;;;;;;5032637;28;20025;-68
2022/10/07 09:41:13;;;;;;;7.07;1.90;;;15.90;94.40;;;;;;5033147;28;20025;-68
2022/10/07 09:43:23;;;;;;;7.38;2.08;;;15.80;94.70;;;;;;5032826;28;20026;-66
2022/10/07 09:45:48;;;;;;;9.68;2.22;;;15.70;94.90;;;;;;5032995;28;20025;-69
2022/10/07 09:48:20;;;;;;;8.82;1.95;;;15.70;95.00;;;;;;5041711;28;20024;-68
2022/10/07 09:50:47;;;;;;;11.15;1.80;;;15.70;95.10;;;;;;5032727;28;20045;-68
2022/10/07 09:53:32;;;;;;;7.20;1.88;;;15.70;95.20;;;;;;5031963;28;20026;-68
2022/10/07 09:55:57;;;;;;;9.38;2.75;;;15.70;95.20;;;;;;5031655;28;20375;-67
2022/10/07 09:58:30;;;;;;;7.25;1.98;;;15.60;95.40;;;;;;5032516;28;20029;-68
2022/10/07 10:01:00;;;;;;;8.05;2.05;;;15.70;95.30;;;;;;5032991;28;20026;-68
2022/10/07 10:03:35;;;;;;;10.30;2.33;;;15.70;95.40;;;;;;5032220;28;20459;-69
2022/10/07 10:06:03;;;;;;;8.27;2.03;;;15.70;95.50;;;;;;5032405;28;20028;-69
2022/10/07 10:08:30;;;;;;;9.13;2.40;;;15.70;95.60;;;;;;5041459;28;20547;-68
2022/10/07 10:11:00;;;;;;;8.13;2.17;;;15.70;95.60;;;;;;5031373;28;20041;-66
2022/10/07 10:13:30;;;;;;;8.95;2.40;;;15.70;95.60;;;;;;5032491;28;20382;-68
2022/10/07 10:15:56;;;;;;;8.32;1.88;;;15.70;95.60;;;;;;5032393;28;20029;-68
2022/10/07 10:18:36;;;;;;;9.07;1.83;;;15.70;95.60;;;;;;5031904;28;20029;-68
2022/10/07 10:21:18;;;;;;;11.25;2.70;;;15.70;95.60;;;;;;5033658;28;20075;-69
2022/10/07 10:23:50;;;;;;;9.80;2.22;;;15.80;95.60;;;;;;5036488;28;20033;-66
2022/10/07 10:26:34;;;;;;;12.20;2.47;;;15.80;95.60;;;;;;5036489;28;20490;-67
2022/10/07 10:29:15;;;;;;;13.73;2.63;;;15.80;95.50;;;;;;5037822;28;20025;-66
2022/10/07 10:31:59;;;;;;;12.20;2.38;;;15.80;95.40;;;;;;5056327;28;20069;-66
2022/10/07 10:34:51;;;;;;;11.05;2.13;;;15.80;95.50;;;;;;5049757;28;20071;-68
2022/10/07 10:37:23;;;;;;;9.15;2.53;;;15.80;95.40;;;;;;5022207;28;20037;-67
2022/10/07 10:39:58;;;;;;;13.00;1.83;;;15.80;95.50;;;;;;5025744;28;20013;-67
2022/10/07 10:42:35;;;;;;;12.75;2.53;;;15.80;95.50;;;;;;5034874;28;20025;-68
2022/10/07 10:45:28;;;;;;;6.28;1.73;;;15.80;95.40;;;;;;5034897;28;20036;-67
2022/10/07 10:48:02;;;;;;;;;;;15.90;95.30;;;;;;5041070;28;20053;-67
2022/10/07 10:50:42;;;;;;;12.57;2.90;;;15.90;95.20;;;;;;5052259;28;20143;-63
2022/10/07 10:53:50;;;;;;;8.75;1.67;;;15.90;95.40;;;;;;5035941;28;20021;-68
2022/10/07 10:56:40;;;;;;;6.78;1.83;;;15.90;95.30;;;;;;5035957;28;20379;-66
2022/10/07 10:59:20;;;;;;;10.85;2.22;;;16.00;95.40;;;;;;5034117;28;20399;-65
2022/10/07 11:01:54;;;;;;;8.50;2.20;;;16.00;95.30;;;;;;5035779;28;20104;-67
2022/10/07 11:04:40;;;;;;;9.63;1.70;;;16.00;95.30;;;;;;5036289;28;20029;-68
2022/10/07 11:07:29;;;;;;;7.15;1.52;;;16.00;95.20;;;;;;5035995;28;20053;-67
2022/10/07 11:10:04;;;;;;;5.50;1.48;;;16.10;95.10;;;;;;5030614;28;20022;-69
2022/10/07 11:12:36;;;;;;;6.55;1.80;;;16.10;95.00;;;;;;5035364;28;20112;-68
2022/10/07 11:15:18;;;;;;;6.97;1.50;;;16.10;94.90;;;;;;5035164;28;20022;-68
2022/10/07 11:17:46;;;;;;;9.73;1.65;;;16.10;95.20;;;;;;5035239;28;20076;-67
2022/10/07 11:20:26;;;;;;;9.90;1.98;;;16.10;94.90;;;;;;5034288;28;20025;-68
2022/10/07 11:22:59;;;;;;;6.15;1.55;;;16.20;94.80;;;;;;5038482;28;20029;-69
2022/10/07 11:25:36;;;;;;;10.05;1.60;;;16.30;94.80;;;;;;5048551;28;20028;-68
2022/10/07 11:28:14;;;;;;;9.27;1.65;;;16.30;94.80;;;;;;5035037;28;20021;-68
2022/10/07 11:31:06;;;;;;;7.40;1.73;;;16.30;94.80;;;;;;5034573;28;20113;-69
2022/10/07 11:33:43;;;;;;;13.70;1.90;;;16.30;94.90;;;;;;5013684;28;20041;-68
2022/10/07 11:36:20;;;;;;;6.80;1.63;;;16.30;94.90;;;;;;5014906;28;20014;-68
2022/10/07 11:38:47;;;;;;;7.38;1.58;;;16.40;94.90;;;;;;5020155;28;20025;-69
2022/10/07 11:41:27;;;;;;;9.77;2.05;;;16.40;94.90;;;;;;5032996;28;20379;-68
2022/10/07 11:43:55;;;;;;;9.02;1.58;;;16.40;94.80;;;;;;5034825;28;20394;-69
2022/10/07 11:46:35;;;;;;;7.93;1.55;;;16.40;94.90;;;;;;5034159;28;20140;-68
2022/10/07 11:49:11;;;;;;;5.07;1.40;;;16.40;94.90;;;;;;5034897;28;20438;-69
2022/10/07 11:51:53;;;;;;;9.30;1.50;;;16.50;95.00;;;;;;5034740;28;20037;-68
2022/10/07 11:54:21;;;;;;;11.20;2.15;;;16.50;94.90;;;;;;5034309;28;20028;-68
2022/10/07 11:56:52;;;;;;;6.65;1.92;;;16.50;94.90;;;;;;5034540;28;20029;-67
2022/10/07 11:59:40;;;;;;;8.75;1.60;;;16.60;94.80;;;;;;5035172;28;20025;-67
2022/10/07 12:02:27;;;;;;;8.77;1.75;;;16.60;94.70;;;;;;5035060;28;20512;-66
2022/10/07 12:04:58;;;;;;;8.13;2.20;;;16.60;94.70;;;;;;5034254;28;20038;-62
2022/10/07 12:07:35;;;;;;;9.45;1.95;;;16.60;94.70;;;;;;5034565;28;20024;-64
2022/10/07 12:10:01;;;;;;;10.98;1.67;;;16.70;94.60;;;;;;5034528;28;20014;-64
2022/10/07 12:12:41;;;;;;;9.50;2.03;;;16.70;94.60;;;;;;5034416;28;20034;-67
2022/10/07 12:15:29;;;;;;;11.80;2.05;;;16.70;94.50;;;;;;5033942;28;20088;-66
2022/10/07 12:18:17;;;;;;;9.43;1.67;;;16.80;94.50;;;;;;5034444;28;20021;-66
2022/10/07 12:20:58;;;;;;;9.23;1.60;;;16.80;94.20;;;;;;5034367;28;20109;-62
2022/10/07 12:23:31;;;;;;;7.85;2.10;;;16.80;94.30;;;;;;5034031;28;20060;-64
2022/10/07 12:25:58;;;;;;;6.78;1.67;;;16.80;94.20;;;;;;5034221;28;20044;-62
2022/10/07 12:28:40;;;;;;;7.53;1.50;;;16.80;94.20;;;;;;5046392;28;20398;-65
2022/10/07 12:31:15;;;;;;;6.53;1.80;;;16.80;94.20;;;;;;5054009;28;20037;-64
2022/10/07 12:34:08;;;;;;;9.70;1.77;;;16.90;94.10;;;;;;5052892;28;20055;-64
2022/10/07 12:36:37;;;;;;;8.57;1.73;;;16.90;94.00;;;;;;5014062;28;20037;-62
2022/10/07 12:39:02;;;;;;;9.65;1.90;;;16.90;94.10;;;;;;5032475;28;20018;-65
2022/10/07 12:41:42;;;;;;;6.70;1.45;;;16.90;94.10;;;;;;5033255;28;20044;-63
2022/10/07 12:44:22;;;;;;;6.35;1.35;;;17.00;94.10;;;;;;5033419;28;20032;-63
2022/10/07 12:47:10;;;;;;;10.50;1.98;;;17.10;94.00;;;;;;5033849;28;20025;-63
2022/10/07 12:49:42;;;;;;;3.92;1.45;;;17.10;94.00;;;;;;5032157;28;20501;-63
2022/10/07 12:52:25;;;;;;;7.65;1.42;;;17.00;94.00;;;;;;5031825;28;20510;-67
2022/10/07 12:54:55;;;;;;;9.05;2.13;;;17.10;94.00;;;;;;5033442;28;20029;-67
2022/10/07 12:57:24;;;;;;;9.98;2.28;;;17.10;94.00;;;;;;5033593;28;20036;-67
2022/10/07 13:00:06;;;;;;;9.07;1.92;;;17.10;93.90;;;;;;5033300;28;20029;-67
2022/10/07 13:02:35;;;;;;;7.38;1.52;;;17.20;94.10;;;;;;5032949;28;20029;-64
2022/10/07 13:05:24;;;;;;;5.90;1.50;;;17.10;94.10;;;;;;5033185;28;20097;-66
2022/10/07 13:08:06;;;;;;;7.93;1.83;;;17.20;94.10;;;;;;5033450;28;20025;-63